Time;durP1;ratioP1;P1;durP2;ratioP2;P2;SDS_P1;SDS_P2;PMS_P1;PMS_P2;Temp;Humidity;BMP_temperature;BMP_pressure;BME280_temperature;BME280_humidity;BME280_pressure;Samples;Min_cycle;Max_cycle;Signal;HPM_P1;HPM_P2
2021/12/23 00:01:21;;;;;;;16.48;11.25;;;-0.70;99.90;;;;;;5097880;28;20036;-66
2021/12/23 00:03:47;;;;;;;19.45;12.70;;;-0.70;99.90;;;;;;5097926;28;20054;-65
2021/12/23 00:06:12;;;;;;;19.63;12.27;;;-0.70;99.90;;;;;;5097797;28;20128;-65
2021/12/23 00:08:38;;;;;;;19.92;12.13;;;-0.70;99.90;;;;;;5098041;28;20055;-66
2021/12/23 00:11:04;;;;;;;17.27;11.77;;;-0.70;99.90;;;;;;5097737;28;20043;-66
2021/12/23 00:13:33;;;;;;;17.48;11.82;;;-0.70;99.90;;;;;;5097773;28;20419;-66
2021/12/23 00:23:43;;;;;;;17.77;12.50;;;-0.60;99.90;;;;;;5097199;28;20135;-66
2021/12/23 00:26:09;;;;;;;17.33;12.40;;;-0.50;99.90;;;;;;5097477;28;20052;-66
2021/12/23 00:28:34;;;;;;;17.30;11.75;;;-0.50;99.90;;;;;;5097510;28;20031;-66
2021/12/23 00:31:01;;;;;;;19.45;11.57;;;-0.40;99.90;;;;;;5096963;28;20487;-66
2021/12/23 00:33:28;;;;;;;19.52;12.18;;;-0.40;99.90;;;;;;5097566;28;20040;-66
2021/12/23 00:35:54;;;;;;;17.55;12.18;;;-0.40;99.90;;;;;;5097320;28;20036;-66
2021/12/23 00:38:29;;;;;;;20.30;12.40;;;-0.40;99.90;;;;;;5097313;28;20062;-66
2021/12/23 00:40:55;;;;;;;;;;;-0.40;99.90;;;;;;5097850;28;20079;-68
2021/12/23 00:43:21;;;;;;;17.92;12.35;;;-0.40;99.90;;;;;;5096375;28;19955;-65
2021/12/23 00:45:48;;;;;;;17.73;12.73;;;-0.50;99.90;;;;;;5096378;28;20043;-65
2021/12/23 00:48:14;;;;;;;21.25;12.88;;;-0.40;99.90;;;;;;5097101;28;20049;-66
2021/12/23 00:50:40;;;;;;;18.98;12.35;;;-0.40;99.90;;;;;;5095811;28;20040;-65
2021/12/23 00:53:08;;;;;;;18.95;12.70;;;-0.40;99.90;;;;;;5095918;28;20043;-66
2021/12/23 00:55:34;;;;;;;20.23;12.82;;;-0.40;99.90;;;;;;5096862;28;20036;-66
2021/12/23 00:58:00;;;;;;;18.70;12.50;;;-0.40;99.90;;;;;;5096604;28;20097;-66
2021/12/23 01:00:27;;;;;;;20.05;12.57;;;-0.40;99.90;;;;;;5096934;28;20115;-66
2021/12/23 01:02:53;;;;;;;19.58;12.57;;;-0.30;99.90;;;;;;5095668;28;20487;-66
2021/12/23 01:05:20;;;;;;;21.23;12.75;;;-0.30;99.90;;;;;;5096998;28;20043;-66
2021/12/23 01:07:46;;;;;;;20.38;12.75;;;-0.40;99.90;;;;;;5095830;28;20040;-66
2021/12/23 01:10:13;;;;;;;20.83;12.57;;;-0.40;99.90;;;;;;5096483;28;20043;-66
2021/12/23 01:12:47;;;;;;;20.95;12.25;;;-0.30;99.90;;;;;;5096545;28;20076;-66
2021/12/23 01:15:38;;;;;;;20.48;12.45;;;-0.30;99.90;;;;;;5095453;28;20093;-63
2021/12/23 01:18:19;;;;;;;19.80;12.88;;;-0.40;99.90;;;;;;5096034;28;20083;-66
2021/12/23 01:20:52;;;;;;;20.88;13.30;;;-0.40;99.90;;;;;;5096707;28;20128;-66
2021/12/23 01:23:21;;;;;;;22.67;12.98;;;-0.40;99.90;;;;;;5096112;28;20063;-66
2021/12/23 01:25:47;;;;;;;21.42;12.65;;;-0.40;99.90;;;;;;5095800;28;20517;-66
2021/12/23 01:28:13;;;;;;;21.60;12.75;;;-0.40;99.90;;;;;;5096168;28;20078;-66
2021/12/23 01:30:39;;;;;;;21.40;13.48;;;-0.40;99.90;;;;;;5096173;28;20048;-66
2021/12/23 01:33:06;;;;;;;18.80;12.65;;;-0.50;99.90;;;;;;5095023;28;20036;-66
2021/12/23 01:35:33;;;;;;;19.63;12.90;;;-0.50;99.90;;;;;;5096252;28;20028;-66
2021/12/23 01:38:00;;;;;;;17.33;12.48;;;-0.40;99.90;;;;;;5095722;28;20376;-66
2021/12/23 01:40:27;;;;;;;19.98;13.10;;;-0.50;99.90;;;;;;5095965;28;20032;-66
2021/12/23 01:42:53;;;;;;;16.75;11.35;;;-0.50;99.90;;;;;;5096231;28;20047;-66
2021/12/23 01:45:29;;;;;;;17.40;11.85;;;-0.40;99.90;;;;;;5095898;28;20040;-66
2021/12/23 01:47:56;;;;;;;20.13;12.35;;;-0.40;99.90;;;;;;5096350;28;20040;-65
2021/12/23 01:50:26;;;;;;;18.08;11.95;;;-0.50;99.90;;;;;;5095671;28;20040;-66
2021/12/23 01:52:53;;;;;;;17.35;11.20;;;-0.50;99.90;;;;;;5094982;28;20094;-66
2021/12/23 01:55:19;;;;;;;20.10;13.05;;;-0.50;99.90;;;;;;5095233;28;20433;-66
2021/12/23 01:57:45;;;;;;;18.55;12.38;;;-0.50;99.90;;;;;;5095804;28;20072;-66
2021/12/23 02:00:14;;;;;;;20.40;12.55;;;-0.50;99.90;;;;;;5095985;28;20046;-66
2021/12/23 02:02:42;;;;;;;20.95;13.38;;;-0.50;99.90;;;;;;5095616;28;20085;-65
2021/12/23 02:05:09;;;;;;;20.00;13.25;;;-0.50;99.90;;;;;;5095994;28;20055;-66
2021/12/23 02:07:35;;;;;;;22.50;13.80;;;-0.50;99.90;;;;;;5095706;28;20043;-66
2021/12/23 02:10:01;;;;;;;20.98;14.25;;;-0.50;99.90;;;;;;5095365;28;20139;-66
2021/12/23 02:12:28;;;;;;;20.52;13.35;;;-0.50;99.90;;;;;;5095439;28;20089;-66
2021/12/23 02:14:53;;;;;;;20.30;13.52;;;-0.50;99.90;;;;;;5093994;28;20048;-66
2021/12/23 02:17:19;;;;;;;20.65;14.25;;;-0.40;99.90;;;;;;5095413;28;20043;-66
2021/12/23 02:19:45;;;;;;;22.30;13.32;;;-0.40;99.90;;;;;;5095035;28;20109;-66
2021/12/23 02:22:10;;;;;;;19.58;13.68;;;-0.30;99.90;;;;;;5095191;28;20054;-66
2021/12/23 02:24:37;;;;;;;20.42;14.43;;;-0.40;99.90;;;;;;5094999;28;20365;-66
2021/12/23 02:27:03;;;;;;;21.60;14.30;;;-0.30;99.90;;;;;;5095240;28;20036;-66
2021/12/23 02:29:29;;;;;;;23.35;14.15;;;-0.40;99.90;;;;;;5095255;28;20098;-66
2021/12/23 02:31:54;;;;;;;23.38;14.63;;;-0.40;99.90;;;;;;5094966;28;20036;-66
2021/12/23 02:34:21;;;;;;;23.48;14.68;;;-0.30;99.90;;;;;;5095144;28;20115;-66
2021/12/23 02:36:56;;;;;;;22.42;14.07;;;-0.30;99.90;;;;;;5095103;28;20044;-66
2021/12/23 02:39:24;;;;;;;19.45;13.80;;;-0.20;99.90;;;;;;5094499;28;20044;-66
2021/12/23 02:41:50;;;;;;;22.08;13.55;;;-0.20;99.90;;;;;;5095016;28;20063;-66
2021/12/23 02:44:17;;;;;;;21.55;13.98;;;-0.20;99.90;;;;;;5093646;28;20040;-66
2021/12/23 02:46:44;;;;;;;22.23;13.75;;;-0.10;99.90;;;;;;5094299;28;20036;-66
2021/12/23 02:49:10;;;;;;;20.92;13.98;;;0.00;99.90;;;;;;5094925;28;20047;-66
2021/12/23 02:51:36;;;;;;;22.40;13.82;;;-0.10;99.90;;;;;;5095077;28;20357;-66
2021/12/23 02:54:02;;;;;;;22.83;14.52;;;-0.10;99.90;;;;;;5094768;28;20036;-66
2021/12/23 02:56:28;;;;;;;21.05;13.73;;;-0.10;99.90;;;;;;5095047;28;20032;-66
2021/12/23 02:58:53;;;;;;;22.83;14.27;;;-0.10;99.90;;;;;;5094885;28;20453;-66
2021/12/23 03:01:21;;;;;;;19.70;14.00;;;-0.10;99.90;;;;;;5094921;28;20051;-66
2021/12/23 03:03:47;;;;;;;21.50;13.95;;;-0.10;99.90;;;;;;5095008;28;20058;-66
2021/12/23 03:06:18;;;;;;;18.48;13.25;;;-0.10;99.90;;;;;;5093764;28;20117;-66
2021/12/23 03:08:52;;;;;;;20.52;14.00;;;-0.10;99.90;;;;;;5094659;28;20036;-66
2021/12/23 03:11:20;;;;;;;21.27;13.90;;;-0.10;99.90;;;;;;5094224;28;20044;-66
2021/12/23 03:13:47;;;;;;;20.02;13.27;;;-0.10;99.90;;;;;;5093546;28;20381;-66
2021/12/23 03:16:14;;;;;;;22.45;13.73;;;-0.10;99.90;;;;;;5094771;28;20114;-66
2021/12/23 03:18:40;;;;;;;23.92;14.73;;;-0.20;99.90;;;;;;5094819;28;20101;-66
2021/12/23 03:21:06;;;;;;;25.63;14.68;;;-0.20;99.90;;;;;;5094677;28;20036;-66
2021/12/23 03:23:33;;;;;;;20.65;13.93;;;-0.10;99.90;;;;;;5094207;28;20819;-66
2021/12/23 03:25:59;;;;;;;22.27;14.55;;;-0.10;99.90;;;;;;5094993;28;20059;-66
2021/12/23 03:28:25;;;;;;;20.33;14.77;;;-0.10;99.90;;;;;;5094618;28;20048;-66
2021/12/23 03:30:51;;;;;;;23.88;15.10;;;-0.10;99.90;;;;;;5096510;28;20307;-66
2021/12/23 03:33:17;;;;;;;21.35;14.65;;;-0.20;99.90;;;;;;5098332;28;20044;-66
2021/12/23 03:35:44;;;;;;;23.67;15.10;;;-0.20;99.90;;;;;;5098537;28;20120;-66
2021/12/23 03:38:10;;;;;;;23.75;15.25;;;-0.20;99.90;;;;;;5098491;28;20036;-66
2021/12/23 03:40:36;;;;;;;24.90;16.30;;;-0.10;99.90;;;;;;5097327;28;20390;-66
2021/12/23 03:43:02;;;;;;;23.23;16.02;;;-0.10;99.90;;;;;;5098346;28;20039;-66
2021/12/23 03:45:28;;;;;;;21.92;15.63;;;-0.20;99.90;;;;;;5098160;28;20035;-66
2021/12/23 03:47:53;;;;;;;25.02;16.17;;;-0.10;99.90;;;;;;5097329;28;20032;-66
2021/12/23 03:50:21;;;;;;;24.83;15.15;;;-0.10;99.90;;;;;;5097711;28;20032;-66
2021/12/23 03:52:47;;;;;;;23.02;15.07;;;-0.10;99.90;;;;;;5098010;28;20372;-66
2021/12/23 03:55:14;;;;;;;21.70;15.32;;;-0.10;99.90;;;;;;5098200;28;20040;-66
2021/12/23 03:57:40;;;;;;;24.30;15.10;;;0.00;99.90;;;;;;5098106;28;20113;-66
2021/12/23 04:00:10;;;;;;;21.92;15.25;;;-0.10;99.90;;;;;;5097936;28;20060;-66
2021/12/23 04:02:36;;;;;;;22.85;14.63;;;-0.10;99.90;;;;;;5098179;28;20040;-66
2021/12/23 04:05:03;;;;;;;22.85;15.05;;;0.00;99.90;;;;;;5098136;28;20105;-66
2021/12/23 04:07:28;;;;;;;25.50;16.30;;;0.00;99.90;;;;;;5097803;28;20044;-66
2021/12/23 04:09:54;;;;;;;25.85;16.98;;;0.00;99.90;;;;;;5098080;28;20036;-66
2021/12/23 04:12:21;;;;;;;24.17;15.73;;;0.00;99.90;;;;;;5097729;28;20089;-66
2021/12/23 04:14:47;;;;;;;24.27;16.33;;;0.00;99.90;;;;;;5097790;28;20111;-66
2021/12/23 04:17:13;;;;;;;25.77;16.08;;;0.00;99.90;;;;;;5097776;28;20063;-67
2021/12/23 04:19:39;;;;;;;24.40;16.15;;;0.00;99.90;;;;;;5098449;28;20501;-66
2021/12/23 04:22:04;;;;;;;24.70;16.30;;;0.10;99.90;;;;;;5097171;28;20051;-66
2021/12/23 04:24:30;;;;;;;22.80;15.13;;;0.10;99.90;;;;;;5097450;28;20048;-66
2021/12/23 04:26:56;;;;;;;25.75;15.68;;;0.10;99.90;;;;;;5097485;28;20054;-66
2021/12/23 04:29:23;;;;;;;25.42;15.18;;;0.10;99.90;;;;;;5097370;28;20059;-66
2021/12/23 04:31:49;;;;;;;26.00;15.80;;;0.10;99.90;;;;;;5097555;28;20063;-65
2021/12/23 04:34:14;;;;;;;22.58;14.88;;;0.10;99.90;;;;;;5096044;28;20051;-66
2021/12/23 04:36:40;;;;;;;22.13;15.25;;;0.20;99.90;;;;;;5097210;28;20061;-66
2021/12/23 04:39:06;;;;;;;23.40;15.32;;;0.20;99.90;;;;;;5097365;28;20064;-66
2021/12/23 04:41:32;;;;;;;21.40;14.95;;;0.20;99.90;;;;;;5095726;28;20459;-67
2021/12/23 04:43:58;;;;;;;23.33;15.00;;;0.20;99.90;;;;;;5096793;28;20039;-66
2021/12/23 04:46:24;;;;;;;23.58;15.52;;;0.20;99.90;;;;;;5096872;28;20418;-66
2021/12/23 04:48:51;;;;;;;22.35;14.68;;;0.30;99.90;;;;;;5097099;28;20040;-66
2021/12/23 04:51:18;;;;;;;24.02;14.55;;;0.30;99.90;;;;;;5096893;28;20040;-66
2021/12/23 04:53:44;;;;;;;22.73;15.02;;;0.30;99.90;;;;;;5097138;28;20032;-66
2021/12/23 04:56:12;;;;;;;23.10;15.45;;;0.40;99.90;;;;;;5076341;28;20442;-65
2021/12/23 04:58:38;;;;;;;22.73;15.35;;;0.40;99.90;;;;;;5076549;28;20032;-68
2021/12/23 05:01:06;;;;;;;24.73;15.77;;;0.40;99.90;;;;;;5076268;28;20472;-67
2021/12/23 05:03:32;;;;;;;21.20;14.45;;;0.40;99.90;;;;;;5076736;28;20075;-66
2021/12/23 05:05:58;;;;;;;22.63;15.00;;;0.40;99.90;;;;;;5076322;28;20425;-66
2021/12/23 05:08:23;;;;;;;21.25;14.23;;;0.50;99.90;;;;;;5088448;28;20052;-67
2021/12/23 05:10:49;;;;;;;25.05;15.52;;;0.50;99.90;;;;;;5096574;28;20044;-66
2021/12/23 05:13:15;;;;;;;23.77;15.40;;;0.50;99.90;;;;;;5096474;28;20191;-67
2021/12/23 05:15:41;;;;;;;23.83;15.52;;;0.50;99.90;;;;;;5096513;28;20032;-66
2021/12/23 05:18:08;;;;;;;22.80;15.57;;;0.50;99.90;;;;;;5095713;28;20043;-66
2021/12/23 05:20:33;;;;;;;26.42;16.17;;;0.50;99.90;;;;;;5095544;28;20040;-67
2021/12/23 05:22:59;;;;;;;23.83;15.55;;;0.50;99.90;;;;;;5096225;28;20063;-64
2021/12/23 05:25:25;;;;;;;25.02;15.75;;;0.50;99.90;;;;;;5095890;28;20054;-64
2021/12/23 05:27:54;;;;;;;25.15;15.77;;;0.40;99.90;;;;;;5078988;28;20054;-66
2021/12/23 05:30:21;;;;;;;23.85;15.55;;;0.50;99.90;;;;;;5095985;28;20032;-66
2021/12/23 05:32:47;;;;;;;21.70;15.32;;;0.40;99.90;;;;;;5096335;28;20062;-66
2021/12/23 05:35:16;;;;;;;25.15;15.55;;;0.40;99.90;;;;;;5095236;28;20445;-64
2021/12/23 05:37:42;;;;;;;25.30;15.63;;;0.50;99.90;;;;;;5094974;28;20513;-66
2021/12/23 05:40:10;;;;;;;26.80;15.57;;;0.40;99.90;;;;;;5096271;28;20036;-66
2021/12/23 05:42:36;;;;;;;23.30;15.32;;;0.50;99.90;;;;;;5094864;28;20101;-64
2021/12/23 05:45:02;;;;;;;25.50;15.63;;;0.50;99.90;;;;;;5095965;28;20036;-67
2021/12/23 05:47:27;;;;;;;24.65;15.93;;;0.50;99.90;;;;;;5096141;28;20433;-65
2021/12/23 05:49:53;;;;;;;24.40;16.00;;;0.50;99.90;;;;;;5096072;28;20414;-65
2021/12/23 05:52:19;;;;;;;23.77;15.50;;;0.50;99.90;;;;;;5095493;28;20058;-65
2021/12/23 05:54:44;;;;;;;24.42;15.50;;;0.50;99.90;;;;;;5095385;28;20111;-66
2021/12/23 05:57:10;;;;;;;23.65;15.57;;;0.50;99.90;;;;;;5096144;28;20032;-65
2021/12/23 05:59:36;;;;;;;24.33;15.90;;;0.50;99.90;;;;;;5096113;28;20464;-65
2021/12/23 06:02:05;;;;;;;23.63;16.08;;;0.60;99.90;;;;;;5080052;28;20044;-64
2021/12/23 06:04:31;;;;;;;26.20;16.33;;;0.50;99.90;;;;;;5080489;28;20032;-65
2021/12/23 06:06:57;;;;;;;26.02;15.98;;;0.40;99.90;;;;;;5083783;28;20097;-64
2021/12/23 06:09:23;;;;;;;24.40;15.82;;;0.50;99.90;;;;;;5075247;28;20043;-65
2021/12/23 06:11:49;;;;;;;26.58;16.00;;;0.40;99.90;;;;;;5080065;28;20037;-66
2021/12/23 06:14:16;;;;;;;25.40;17.00;;;0.50;99.90;;;;;;5086555;28;20457;-66
2021/12/23 06:16:42;;;;;;;24.08;16.30;;;0.40;99.90;;;;;;5092697;28;20035;-65
2021/12/23 06:19:07;;;;;;;25.38;17.33;;;0.40;99.90;;;;;;5078778;28;20029;-65
2021/12/23 06:21:33;;;;;;;25.65;17.50;;;0.40;99.90;;;;;;5074710;28;20461;-66
2021/12/23 06:23:59;;;;;;;25.05;16.05;;;0.40;99.90;;;;;;5075116;28;20072;-64
2021/12/23 06:26:25;;;;;;;26.05;16.90;;;0.40;99.90;;;;;;5074747;28;20103;-64
2021/12/23 06:28:51;;;;;;;26.25;17.42;;;0.40;99.90;;;;;;5074626;28;20037;-65
2021/12/23 06:31:16;;;;;;;24.92;16.50;;;0.50;99.90;;;;;;5074516;28;20124;-65
2021/12/23 06:33:42;;;;;;;24.75;16.42;;;0.50;99.90;;;;;;5074565;28;20040;-64
2021/12/23 06:36:08;;;;;;;26.27;17.02;;;0.50;99.90;;;;;;5084853;28;20048;-66
2021/12/23 06:38:35;;;;;;;26.40;16.30;;;0.40;99.90;;;;;;5072791;28;20041;-65
2021/12/23 06:41:01;;;;;;;25.17;15.80;;;0.50;99.90;;;;;;5074264;28;20365;-65
2021/12/23 06:43:27;;;;;;;25.15;16.27;;;0.50;99.90;;;;;;5073341;28;20119;-66
2021/12/23 06:45:52;;;;;;;26.42;16.65;;;0.40;99.90;;;;;;5091861;28;20173;-65
2021/12/23 06:48:18;;;;;;;25.25;16.70;;;0.50;99.90;;;;;;5094461;28;20051;-66
2021/12/23 06:50:45;;;;;;;25.90;16.92;;;0.50;99.90;;;;;;5094210;28;20047;-64
2021/12/23 06:53:13;;;;;;;27.23;15.98;;;0.50;99.90;;;;;;5094277;28;20036;-66
2021/12/23 06:55:40;;;;;;;24.60;15.68;;;0.50;99.90;;;;;;5085182;28;20055;-66
2021/12/23 06:58:06;;;;;;;25.20;15.55;;;0.50;99.90;;;;;;5077419;28;20047;-66
2021/12/23 07:00:32;;;;;;;23.92;16.50;;;0.50;99.90;;;;;;5077578;28;20040;-65
2021/12/23 07:02:58;;;;;;;29.05;16.70;;;0.50;99.90;;;;;;5094360;28;20040;-65
2021/12/23 07:05:24;;;;;;;25.25;16.48;;;0.50;99.90;;;;;;5095741;28;20036;-66
2021/12/23 07:08:03;;;;;;;26.42;17.60;;;0.50;99.90;;;;;;5098523;28;20464;-65
2021/12/23 07:10:30;;;;;;;27.10;16.50;;;0.50;99.90;;;;;;5098587;28;20036;-65
2021/12/23 07:12:57;;;;;;;26.30;17.60;;;0.50;99.90;;;;;;5094225;28;20121;-65
2021/12/23 07:15:24;;;;;;;28.75;17.55;;;0.50;99.90;;;;;;5098843;28;20027;-64
2021/12/23 07:17:50;;;;;;;28.30;17.27;;;0.50;99.90;;;;;;5098006;28;20059;-62
2021/12/23 07:20:16;;;;;;;27.92;17.80;;;0.50;99.90;;;;;;5079840;28;20036;-62
2021/12/23 07:22:42;;;;;;;26.45;17.27;;;0.50;99.90;;;;;;5077976;28;20059;-63
2021/12/23 07:25:09;;;;;;;29.33;17.77;;;0.50;99.90;;;;;;5089377;28;20036;-61
2021/12/23 07:27:35;;;;;;;27.63;18.23;;;0.50;99.90;;;;;;5098006;28;20087;-62
2021/12/23 07:30:01;;;;;;;26.75;17.98;;;0.50;99.90;;;;;;5098691;28;20071;-62
2021/12/23 07:32:27;;;;;;;25.83;16.60;;;0.40;99.90;;;;;;5098102;28;20047;-62
2021/12/23 07:34:52;;;;;;;28.25;19.00;;;0.50;99.90;;;;;;5097584;28;20357;-61
2021/12/23 07:37:19;;;;;;;26.10;18.00;;;0.40;99.90;;;;;;5098158;28;20036;-62
2021/12/23 07:39:47;;;;;;;31.92;18.35;;;0.40;99.90;;;;;;5097733;28;20032;-64
2021/12/23 07:42:15;;;;;;;27.58;18.25;;;0.40;99.90;;;;;;5097858;28;20044;-61
2021/12/23 07:44:44;;;;;;;28.50;17.25;;;0.50;99.90;;;;;;5097942;28;20475;-61
2021/12/23 07:47:11;;;;;;;29.40;19.02;;;0.40;99.90;;;;;;5098843;28;20079;-61
2021/12/23 07:49:37;;;;;;;30.70;19.20;;;0.40;99.90;;;;;;5098371;28;20059;-61
2021/12/23 07:52:03;;;;;;;31.77;19.33;;;0.40;99.90;;;;;;5096933;28;20044;-61
2021/12/23 07:54:29;;;;;;;32.35;19.77;;;0.40;99.90;;;;;;5097792;28;20032;-61
2021/12/23 07:56:54;;;;;;;34.22;19.92;;;0.40;99.90;;;;;;5098166;28;20032;-62
2021/12/23 07:59:20;;;;;;;31.88;20.83;;;0.40;99.90;;;;;;5098166;28;20064;-61
2021/12/23 08:01:46;;;;;;;37.08;22.92;;;0.40;99.90;;;;;;5098204;28;20115;-61
2021/12/23 08:04:11;;;;;;;39.38;22.48;;;0.40;99.90;;;;;;5098065;28;20101;-61
2021/12/23 08:06:37;;;;;;;41.10;24.10;;;0.40;99.90;;;;;;5097202;28;20043;-61
2021/12/23 08:09:03;;;;;;;39.97;23.27;;;0.40;99.90;;;;;;5097936;28;20036;-61
2021/12/23 08:11:29;;;;;;;38.55;23.70;;;0.30;99.90;;;;;;5097799;28;20050;-61
2021/12/23 08:13:54;;;;;;;38.83;24.70;;;0.40;99.90;;;;;;5097710;28;20079;-60
2021/12/23 08:16:20;;;;;;;38.15;24.63;;;0.40;99.90;;;;;;5079353;28;20047;-62
2021/12/23 08:18:46;;;;;;;42.03;23.80;;;0.40;99.90;;;;;;5097667;28;20032;-62
2021/12/23 08:21:11;;;;;;;45.05;25.33;;;0.30;99.90;;;;;;5097721;28;20464;-61
2021/12/23 08:23:37;;;;;;;40.38;24.50;;;0.30;99.90;;;;;;5097431;28;20048;-62
2021/12/23 08:26:10;;;;;;;40.28;24.88;;;0.40;99.90;;;;;;5097413;28;20036;-62
2021/12/23 08:28:35;;;;;;;39.78;22.30;;;0.30;99.90;;;;;;5096622;28;20067;-62
2021/12/23 08:31:01;;;;;;;39.97;23.95;;;0.40;99.90;;;;;;5097448;28;20035;-62
2021/12/23 08:33:27;;;;;;;38.72;21.65;;;0.50;99.90;;;;;;5097228;28;20064;-62
2021/12/23 08:35:52;;;;;;;43.25;25.00;;;0.50;99.90;;;;;;5097371;28;20047;-62
2021/12/23 08:38:19;;;;;;;42.97;25.30;;;0.40;99.90;;;;;;5096389;28;20467;-62
2021/12/23 08:40:45;;;;;;;43.45;26.40;;;0.30;99.90;;;;;;5097233;28;20040;-62
2021/12/23 08:43:11;;;;;;;44.28;25.27;;;0.30;99.90;;;;;;5097132;28;20459;-62
2021/12/23 08:45:37;;;;;;;43.05;24.40;;;0.30;99.90;;;;;;5096533;28;20028;-62
2021/12/23 08:48:02;;;;;;;44.15;27.17;;;0.40;99.90;;;;;;5096923;28;20036;-61
2021/12/23 08:50:30;;;;;;;47.38;26.45;;;0.30;99.90;;;;;;5097174;28;20147;-61
2021/12/23 08:52:56;;;;;;;46.97;26.52;;;0.30;99.90;;;;;;5096757;28;20505;-63
2021/12/23 08:55:25;;;;;;;43.92;24.23;;;0.40;99.90;;;;;;5096465;28;20342;-62
2021/12/23 08:57:51;;;;;;;45.10;25.73;;;0.40;99.90;;;;;;5096785;28;20036;-62
2021/12/23 09:00:18;;;;;;;48.38;29.35;;;0.30;99.90;;;;;;5096475;28;20031;-62
2021/12/23 09:02:46;;;;;;;48.53;28.35;;;0.40;99.90;;;;;;5096665;28;20097;-62
2021/12/23 09:05:12;;;;;;;49.78;28.42;;;0.40;99.90;;;;;;5096313;28;20039;-62
2021/12/23 09:07:38;;;;;;;50.22;27.60;;;0.40;99.90;;;;;;5096485;28;20043;-62
2021/12/23 09:10:06;;;;;;;45.95;27.00;;;0.40;99.90;;;;;;5096367;28;20081;-62
2021/12/23 09:12:32;;;;;;;46.00;27.33;;;0.40;99.90;;;;;;5093128;28;20048;-62
2021/12/23 09:14:58;;;;;;;52.58;29.13;;;0.40;99.90;;;;;;5093528;28;20032;-62
2021/12/23 09:17:23;;;;;;;48.72;27.98;;;0.40;99.90;;;;;;5075383;28;20039;-63
2021/12/23 09:19:49;;;;;;;49.75;28.02;;;0.40;99.90;;;;;;5080335;28;20508;-65
2021/12/23 09:22:15;;;;;;;47.03;27.17;;;0.50;99.90;;;;;;5075372;28;20056;-62
2021/12/23 09:24:45;;;;;;;50.00;28.45;;;0.50;99.90;;;;;;5081028;28;20032;-62
2021/12/23 09:27:25;;;;;;;47.90;26.75;;;0.50;99.90;;;;;;5075055;28;20044;-62
2021/12/23 09:35:02;;;;;;;51.10;28.90;;;0.50;99.90;;;;;;5085181;28;20120;-62
2021/12/23 09:37:29;;;;;;;51.67;29.55;;;0.60;99.90;;;;;;5095780;28;20047;-63
2021/12/23 09:39:57;;;;;;;46.95;27.38;;;0.50;99.90;;;;;;5095896;28;20046;-62
2021/12/23 09:42:28;;;;;;;50.50;28.00;;;0.50;99.90;;;;;;5095309;28;20059;-64
2021/12/23 09:44:58;;;;;;;54.60;29.67;;;0.60;99.90;;;;;;5095224;28;20068;-64
2021/12/23 09:47:29;;;;;;;55.47;30.17;;;0.60;99.90;;;;;;5094797;28;20036;-64
2021/12/23 09:49:57;;;;;;;52.17;30.42;;;0.60;99.90;;;;;;5093863;28;20453;-64
2021/12/23 09:52:23;;;;;;;52.17;30.58;;;0.50;99.90;;;;;;5075058;28;20186;-64
2021/12/23 09:54:52;;;;;;;53.35;31.92;;;0.60;99.90;;;;;;5081107;28;20434;-64
2021/12/23 09:57:18;;;;;;;51.78;29.88;;;0.60;99.90;;;;;;5092213;28;20441;-64
2021/12/23 09:59:43;;;;;;;52.28;29.65;;;0.60;99.90;;;;;;5075284;28;20078;-63
2021/12/23 10:02:10;;;;;;;54.20;30.20;;;0.70;99.90;;;;;;5075305;28;20123;-63
2021/12/23 10:04:36;;;;;;;56.60;29.95;;;0.60;99.90;;;;;;5080717;28;20093;-64
2021/12/23 10:07:02;;;;;;;51.97;29.10;;;0.70;99.90;;;;;;5095216;28;20093;-63
2021/12/23 10:09:45;;;;;;;51.38;28.20;;;0.70;99.90;;;;;;5095039;28;20071;-63
2021/12/23 10:31:38;;;;;;;52.88;28.25;;;0.80;99.90;;;;;;5095474;28;20052;-63
2021/12/23 10:37:22;;;;;;;54.85;30.35;;;0.80;99.90;;;;;;5046997;28;20052;-62
2021/12/23 10:40:07;;;;;;;54.15;29.30;;;0.80;99.90;;;;;;5087813;28;20040;-62
2021/12/23 10:42:33;;;;;;;53.83;30.42;;;0.90;99.90;;;;;;5095053;28;20054;-62
2021/12/23 10:45:05;;;;;;;53.92;29.77;;;0.80;99.90;;;;;;5095144;28;20047;-62
2021/12/23 10:53:22;;;;;;;52.35;27.20;;;0.90;99.90;;;;;;5095122;28;20048;-62
2021/12/23 10:59:19;;;;;;;47.45;27.83;;;0.90;99.90;;;;;;5094243;28;20398;-62
2021/12/23 11:02:22;;;;;;;49.42;28.17;;;0.90;99.90;;;;;;5079176;28;20032;-62
2021/12/23 11:05:21;;;;;;;50.53;28.80;;;1.00;99.90;;;;;;5080871;28;20461;-62
2021/12/23 11:08:00;;;;;;;52.50;28.27;;;0.90;99.90;;;;;;5077703;28;20032;-62
2021/12/23 11:36:17;;;;;;;57.95;30.23;;;1.10;99.90;;;;;;5064783;28;20040;-62
2021/12/23 11:43:56;;;;;;;54.63;29.42;;;1.10;99.90;;;;;;5083443;28;20090;-62
2021/12/23 11:46:28;;;;;;;;;;;1.10;99.90;;;;;;5088837;28;20051;-63
2021/12/23 11:48:56;;;;;;;52.20;29.02;;;1.10;99.90;;;;;;5065231;28;19927;-63
2021/12/23 11:53:57;;;;;;;54.47;29.92;;;1.10;99.90;;;;;;5080363;28;20592;-64
2021/12/23 11:56:25;;;;;;;53.30;27.58;;;1.20;99.90;;;;;;5087157;28;20040;-64
2021/12/23 11:58:51;;;;;;;51.22;27.63;;;1.20;99.90;;;;;;5083998;28;20040;-63
2021/12/23 12:01:19;;;;;;;54.22;30.30;;;1.20;99.90;;;;;;5095145;28;20044;-63
2021/12/23 12:04:20;;;;;;;56.53;29.15;;;1.20;99.90;;;;;;5097751;28;20158;-62
2021/12/23 12:06:47;;;;;;;55.38;29.83;;;1.20;99.90;;;;;;5097663;28;20072;-62
2021/12/23 12:09:28;;;;;;;49.65;28.25;;;1.20;99.90;;;;;;5097631;28;20107;-62
2021/12/23 12:11:59;;;;;;;52.03;27.90;;;1.20;99.90;;;;;;5098091;28;20079;-62
2021/12/23 12:14:44;;;;;;;52.60;28.23;;;1.20;99.90;;;;;;5097881;28;20040;-62
2021/12/23 12:17:36;;;;;;;47.58;26.25;;;1.20;99.90;;;;;;5098186;28;20046;-62
2021/12/23 12:20:34;;;;;;;51.63;28.45;;;1.20;99.90;;;;;;5097846;28;20032;-62
2021/12/23 12:23:07;;;;;;;52.35;29.13;;;1.20;99.90;;;;;;5096313;28;20055;-63
2021/12/23 12:25:42;;;;;;;54.70;27.45;;;1.20;99.90;;;;;;5089995;28;20120;-63
2021/12/23 12:28:07;;;;;;;54.53;30.27;;;1.20;99.90;;;;;;5097864;28;20127;-63
2021/12/23 12:30:40;;;;;;;51.72;27.63;;;1.20;99.90;;;;;;5093642;28;20079;-63
2021/12/23 12:33:10;;;;;;;56.65;30.35;;;1.20;99.90;;;;;;5083522;28;20042;-62
2021/12/23 12:35:37;;;;;;;49.15;24.02;;;1.20;99.90;;;;;;5097388;28;20032;-62
2021/12/23 12:38:17;;;;;;;53.80;27.98;;;1.20;99.90;;;;;;5097405;28;20360;-63
2021/12/23 12:41:09;;;;;;;55.55;30.05;;;1.20;99.90;;;;;;5097483;28;20369;-64
2021/12/23 12:43:59;;;;;;;46.22;27.48;;;1.30;99.90;;;;;;5074851;28;20347;-63
2021/12/23 12:46:34;;;;;;;50.60;28.13;;;1.30;99.90;;;;;;5084107;28;20040;-63
2021/12/23 12:49:09;;;;;;;52.05;26.98;;;1.30;99.90;;;;;;5097319;28;20040;-63
2021/12/23 12:51:37;;;;;;;54.97;29.58;;;1.30;99.90;;;;;;5097096;28;20038;-63
2021/12/23 12:54:26;;;;;;;55.25;28.08;;;1.30;99.90;;;;;;5094828;28;20093;-64
2021/12/23 12:56:55;;;;;;;51.15;27.60;;;1.30;99.90;;;;;;5074581;28;20312;-65
2021/12/23 12:59:25;;;;;;;52.78;29.17;;;1.30;99.90;;;;;;5074569;28;20036;-65
2021/12/23 13:01:52;;;;;;;51.47;28.98;;;1.30;99.90;;;;;;5074984;28;20462;-64
2021/12/23 13:04:23;;;;;;;52.05;26.77;;;1.30;99.90;;;;;;5076112;28;20101;-65
2021/12/23 13:06:51;;;;;;;48.85;27.90;;;1.30;99.90;;;;;;5095770;28;20361;-65
2021/12/23 13:09:22;;;;;;;54.80;29.45;;;1.30;99.90;;;;;;5074591;28;20369;-65
2021/12/23 13:11:49;;;;;;;54.22;26.90;;;1.30;99.90;;;;;;5075320;28;20113;-65
2021/12/23 13:15:16;;;;;;;47.33;26.02;;;1.40;99.90;;;;;;5076251;28;20049;-64
2021/12/23 13:18:06;;;;;;;52.95;28.08;;;1.40;99.90;;;;;;5094671;28;20101;-64
2021/12/23 13:20:35;;;;;;;47.72;26.17;;;1.40;99.90;;;;;;5095465;28;20028;-65
2021/12/23 13:23:04;;;;;;;50.40;27.85;;;1.40;99.90;;;;;;5094039;28;20074;-65
2021/12/23 13:25:30;;;;;;;53.92;30.48;;;1.40;99.90;;;;;;5095113;28;20130;-64
2021/12/23 13:27:58;;;;;;;46.25;26.83;;;1.40;99.90;;;;;;5094812;28;20131;-64
2021/12/23 13:30:23;;;;;;;50.45;28.25;;;1.50;99.90;;;;;;5094954;28;20539;-67
2021/12/23 13:33:00;;;;;;;55.45;30.98;;;1.60;99.90;;;;;;5094977;28;20128;-64
2021/12/23 13:35:27;;;;;;;50.97;29.83;;;1.50;99.90;;;;;;5093770;28;20028;-65
2021/12/23 13:37:52;;;;;;;48.20;27.60;;;1.50;99.90;;;;;;5094857;28;20051;-64
2021/12/23 13:40:31;;;;;;;47.35;25.90;;;1.50;99.90;;;;;;5094562;28;20075;-65
2021/12/23 13:42:57;;;;;;;47.85;25.42;;;1.60;99.90;;;;;;5094670;28;20059;-64
2021/12/23 13:45:24;;;;;;;53.67;28.70;;;1.60;99.90;;;;;;5087679;28;20040;-64
2021/12/23 13:47:53;;;;;;;50.53;26.83;;;1.60;99.90;;;;;;5073191;28;20459;-64
2021/12/23 13:50:20;;;;;;;49.42;26.25;;;1.70;99.90;;;;;;5073805;28;20090;-65
2021/12/23 13:52:49;;;;;;;54.75;28.80;;;1.70;99.90;;;;;;5073991;28;20107;-65
2021/12/23 13:55:25;;;;;;;47.30;27.42;;;1.70;99.90;;;;;;5075434;28;20059;-65
2021/12/23 13:57:56;;;;;;;50.33;27.35;;;1.70;99.90;;;;;;5073398;28;20037;-65
2021/12/23 14:00:34;;;;;;;53.47;27.88;;;1.80;99.90;;;;;;5065539;28;20029;-66